Time;durP1;ratioP1;P1;durP2;ratioP2;P2;SDS_P1;SDS_P2;PMS_P1;PMS_P2;Temp;Humidity;BMP_temperature;BMP_pressure;BME280_temperature;BME280_humidity;BME280_pressure;Samples;Min_cycle;Max_cycle;Signal;HPM_P1;HPM_P2
2023/07/19 00:01:48;;;;;;;9.82;5.00;;;26.50;82.50;;;;;;4986681;28;20023;-57
2023/07/19 00:04:14;;;;;;;10.93;4.90;;;26.50;82.70;;;;;;4986687;28;20363;-56
2023/07/19 00:06:39;;;;;;;13.43;4.72;;;26.50;83.00;;;;;;4987630;28;20037;-57
2023/07/19 00:09:05;;;;;;;9.65;5.45;;;26.50;83.00;;;;;;4986526;28;20379;-57
2023/07/19 00:11:30;;;;;;;8.20;5.22;;;26.50;83.00;;;;;;4987924;28;20035;-57
2023/07/19 00:13:56;;;;;;;7.07;4.75;;;26.50;83.00;;;;;;4987816;28;20087;-56
2023/07/19 00:16:22;;;;;;;10.50;4.95;;;26.40;82.90;;;;;;4986555;28;20027;-57
2023/07/19 00:18:48;;;;;;;11.45;5.07;;;26.40;82.80;;;;;;4986478;28;20363;-57
2023/07/19 00:21:13;;;;;;;11.27;5.13;;;26.40;82.80;;;;;;4986272;28;20053;-56
2023/07/19 00:23:39;;;;;;;13.73;4.88;;;26.40;82.90;;;;;;4983427;28;20038;-57
2023/07/19 00:26:04;;;;;;;8.90;4.70;;;26.40;82.90;;;;;;4987598;28;20023;-57
2023/07/19 00:28:30;;;;;;;6.63;4.40;;;26.40;83.00;;;;;;4987290;28;20033;-57
2023/07/19 00:31:03;;;;;;;10.23;5.22;;;26.40;83.10;;;;;;4961701;28;20027;-57
2023/07/19 00:33:29;;;;;;;8.48;5.30;;;26.30;83.10;;;;;;4984072;28;20031;-56
2023/07/19 00:35:54;;;;;;;8.88;5.03;;;26.40;83.40;;;;;;4987427;28;20023;-57
2023/07/19 00:38:21;;;;;;;14.20;5.30;;;26.30;83.40;;;;;;4986009;28;20037;-56
2023/07/19 00:40:47;;;;;;;9.65;5.25;;;26.30;83.50;;;;;;4984746;28;20027;-57
2023/07/19 00:43:13;;;;;;;9.45;5.10;;;26.30;83.70;;;;;;4985925;28;20037;-56
2023/07/19 00:45:51;;;;;;;7.80;4.40;;;26.30;83.80;;;;;;4987285;28;20050;-57
2023/07/19 00:48:17;;;;;;;10.45;4.95;;;26.30;83.90;;;;;;4976985;28;20126;-57
2023/07/19 00:50:43;;;;;;;9.82;5.28;;;26.20;83.90;;;;;;4985748;28;20030;-56
2023/07/19 00:53:10;;;;;;;8.48;5.05;;;26.20;83.90;;;;;;4986911;28;20417;-56
2023/07/19 00:55:35;;;;;;;11.32;5.03;;;26.20;84.10;;;;;;4947210;28;20015;-56
2023/07/19 00:58:01;;;;;;;6.88;4.28;;;26.20;84.20;;;;;;4985510;28;20384;-57
2023/07/19 01:00:26;;;;;;;6.57;4.68;;;26.20;84.20;;;;;;4983414;28;20034;-57
2023/07/19 01:02:52;;;;;;;7.20;4.40;;;26.20;84.30;;;;;;4986231;28;20023;-56
2023/07/19 01:05:18;;;;;;;8.07;4.82;;;26.20;84.40;;;;;;4970017;28;20062;-56
2023/07/19 01:07:43;;;;;;;8.70;5.10;;;26.10;84.40;;;;;;4986018;28;20027;-56
2023/07/19 01:10:09;;;;;;;8.30;4.78;;;26.10;84.30;;;;;;4986031;28;20117;-56
2023/07/19 01:12:34;;;;;;;10.98;4.95;;;26.10;84.30;;;;;;4987091;28;20035;-57
2023/07/19 01:15:01;;;;;;;10.00;4.63;;;26.10;84.30;;;;;;4986021;28;20023;-56
2023/07/19 01:17:26;;;;;;;7.10;4.78;;;26.00;84.60;;;;;;4970024;28;20434;-56
2023/07/19 01:19:52;;;;;;;8.50;5.07;;;26.10;84.70;;;;;;4987275;28;20027;-57
2023/07/19 01:22:17;;;;;;;9.23;4.90;;;26.10;84.80;;;;;;4986069;28;20459;-56
2023/07/19 01:24:43;;;;;;;7.30;5.10;;;26.10;85.00;;;;;;4987248;28;20035;-56
2023/07/19 01:27:08;;;;;;;7.72;5.00;;;26.10;85.10;;;;;;4985830;28;20033;-56
2023/07/19 01:29:34;;;;;;;11.13;5.25;;;26.10;85.20;;;;;;4987218;28;20050;-56
2023/07/19 01:31:59;;;;;;;8.57;5.03;;;26.00;85.00;;;;;;4985768;28;20091;-56
2023/07/19 01:34:25;;;;;;;11.48;5.18;;;26.00;85.00;;;;;;4987074;28;20360;-56
2023/07/19 01:36:51;;;;;;;7.05;5.00;;;26.00;85.20;;;;;;4985975;28;20121;-56
2023/07/19 01:39:16;;;;;;;8.45;4.85;;;26.00;85.30;;;;;;4985812;28;20046;-56
2023/07/19 01:41:42;;;;;;;7.82;4.82;;;26.00;85.40;;;;;;4986894;28;20035;-56
2023/07/19 01:44:07;;;;;;;9.23;5.13;;;25.90;85.60;;;;;;4990379;28;20083;-56
2023/07/19 01:46:35;;;;;;;6.25;4.95;;;26.00;85.70;;;;;;4990942;28;20031;-56
2023/07/19 01:49:01;;;;;;;7.50;4.93;;;26.00;85.70;;;;;;4989665;28;20434;-56
2023/07/19 01:51:26;;;;;;;8.57;5.32;;;26.00;85.70;;;;;;4990862;28;20030;-57
2023/07/19 01:53:52;;;;;;;6.82;4.90;;;25.90;85.80;;;;;;4989530;28;20031;-56
2023/07/19 01:56:17;;;;;;;7.20;5.53;;;25.90;85.70;;;;;;4989566;28;20100;-56
2023/07/19 01:58:43;;;;;;;5.88;4.75;;;25.90;85.70;;;;;;4989554;28;20435;-57
2023/07/19 02:01:08;;;;;;;9.23;4.93;;;25.90;85.80;;;;;;4990622;28;20027;-57
2023/07/19 02:03:34;;;;;;;5.47;4.75;;;25.90;85.70;;;;;;4989412;28;20094;-57
2023/07/19 02:05:59;;;;;;;9.23;5.47;;;25.80;85.60;;;;;;4990395;28;20050;-56
2023/07/19 02:08:26;;;;;;;11.73;5.80;;;25.80;85.60;;;;;;4972628;28;20038;-57
2023/07/19 02:10:51;;;;;;;7.28;4.80;;;25.80;85.80;;;;;;4988790;28;20050;-56
2023/07/19 02:13:17;;;;;;;8.82;5.40;;;25.80;86.00;;;;;;4988863;28;20023;-57
2023/07/19 02:15:44;;;;;;;8.48;5.38;;;25.80;86.10;;;;;;4955231;28;20034;-57
2023/07/19 02:18:09;;;;;;;9.95;5.47;;;25.80;86.90;;;;;;4988487;28;20034;-57
2023/07/19 02:20:36;;;;;;;7.57;4.95;;;25.80;86.50;;;;;;4972688;28;20023;-57
2023/07/19 02:23:01;;;;;;;9.10;4.90;;;25.80;86.40;;;;;;4988440;28;20054;-57
2023/07/19 02:25:27;;;;;;;9.23;5.05;;;25.80;86.60;;;;;;4989810;28;20039;-56
2023/07/19 02:27:52;;;;;;;8.02;5.63;;;25.70;86.50;;;;;;4990211;28;20391;-56
2023/07/19 02:30:18;;;;;;;9.63;5.55;;;25.70;86.60;;;;;;4990230;28;20034;-56
2023/07/19 02:32:43;;;;;;;6.65;5.05;;;25.70;87.40;;;;;;4988601;28;20058;-57
2023/07/19 02:35:09;;;;;;;8.85;6.03;;;25.70;86.90;;;;;;4988828;28;20031;-56
2023/07/19 02:37:34;;;;;;;12.50;6.68;;;25.60;86.70;;;;;;4989925;28;20034;-56
2023/07/19 02:40:00;;;;;;;6.95;5.90;;;25.70;86.90;;;;;;4988650;28;20023;-56
2023/07/19 02:42:25;;;;;;;9.65;7.55;;;25.60;87.10;;;;;;4989324;28;20027;-56
2023/07/19 02:44:51;;;;;;;7.97;6.28;;;25.60;86.80;;;;;;4989420;28;20502;-56
2023/07/19 02:47:16;;;;;;;8.48;5.78;;;25.60;86.80;;;;;;4989451;28;20115;-56
2023/07/19 02:49:42;;;;;;;11.60;6.18;;;25.60;87.20;;;;;;4989462;28;20443;-57
2023/07/19 02:52:08;;;;;;;11.10;5.50;;;25.60;87.30;;;;;;4988205;28;20027;-56
2023/07/19 02:54:34;;;;;;;10.75;6.13;;;25.60;87.50;;;;;;4987638;28;20387;-56
2023/07/19 02:56:59;;;;;;;7.47;6.43;;;25.50;87.50;;;;;;4987691;28;20019;-56
2023/07/19 02:59:25;;;;;;;10.10;6.93;;;25.60;87.70;;;;;;4988079;28;20117;-57
2023/07/19 03:01:50;;;;;;;9.18;6.85;;;25.60;87.70;;;;;;4988973;28;20086;-57
2023/07/19 03:04:16;;;;;;;8.93;6.63;;;25.50;87.20;;;;;;4987893;28;20039;-56
2023/07/19 03:06:42;;;;;;;10.77;7.28;;;25.60;87.30;;;;;;4987986;28;20041;-56
2023/07/19 03:09:07;;;;;;;9.90;7.28;;;25.60;87.20;;;;;;4968811;28;20052;-56
2023/07/19 03:11:33;;;;;;;7.45;6.65;;;25.50;87.00;;;;;;4989073;28;20027;-56
2023/07/19 03:13:58;;;;;;;8.88;6.47;;;25.50;86.90;;;;;;4988798;28;20430;-56
2023/07/19 03:16:24;;;;;;;8.60;6.03;;;25.60;87.10;;;;;;4987447;28;20134;-56
2023/07/19 03:18:49;;;;;;;8.02;6.28;;;25.50;86.90;;;;;;4987483;28;20031;-57
2023/07/19 03:21:15;;;;;;;8.32;6.70;;;25.50;87.00;;;;;;4988674;28;20046;-56
2023/07/19 03:23:40;;;;;;;8.18;7.00;;;25.50;87.30;;;;;;4987376;28;20166;-56
2023/07/19 03:26:07;;;;;;;10.07;7.10;;;25.50;87.50;;;;;;4988519;28;20022;-56
2023/07/19 03:28:32;;;;;;;15.43;7.10;;;25.50;87.70;;;;;;4987251;28;20022;-56
2023/07/19 03:30:58;;;;;;;23.60;7.95;;;25.50;87.90;;;;;;4988444;28;20093;-57
2023/07/19 03:33:24;;;;;;;19.73;7.57;;;25.50;88.20;;;;;;4987224;28;20034;-56
2023/07/19 03:35:49;;;;;;;17.17;8.50;;;25.50;88.40;;;;;;4987267;28;20590;-56
2023/07/19 03:38:17;;;;;;;17.90;8.75;;;25.50;88.60;;;;;;4988762;28;20027;-56
2023/07/19 03:40:42;;;;;;;29.52;9.95;;;25.50;88.30;;;;;;4987462;28;20019;-57
2023/07/19 03:43:08;;;;;;;48.80;14.02;;;25.50;88.10;;;;;;4970937;28;20037;-57
2023/07/19 03:45:34;;;;;;;51.97;13.38;;;25.40;88.10;;;;;;4988300;28;20019;-56
2023/07/19 03:47:59;;;;;;;38.10;12.00;;;25.40;88.40;;;;;;4987095;28;20059;-56
2023/07/19 03:50:25;;;;;;;42.72;14.10;;;25.40;88.70;;;;;;4986843;28;20037;-56
2023/07/19 03:52:50;;;;;;;43.88;14.70;;;25.40;88.80;;;;;;4988218;28;20031;-56
2023/07/19 03:55:16;;;;;;;76.68;34.20;;;25.40;88.80;;;;;;4986754;28;20034;-56
2023/07/19 03:57:42;;;;;;;94.18;39.55;;;25.40;88.50;;;;;;4988309;28;20027;-56
2023/07/19 04:00:09;;;;;;;74.75;31.65;;;25.40;88.40;;;;;;4986789;28;20053;-56
2023/07/19 04:02:34;;;;;;;68.10;32.67;;;25.40;88.40;;;;;;4988018;28;20023;-57
2023/07/19 04:05:00;;;;;;;74.30;29.63;;;25.40;88.20;;;;;;4986688;28;20122;-56
2023/07/19 04:07:26;;;;;;;117.03;57.80;;;25.40;88.10;;;;;;4987036;28;20034;-56
2023/07/19 04:09:51;;;;;;;80.03;33.83;;;25.40;88.90;;;;;;4971268;28;20091;-56
2023/07/19 04:12:17;;;;;;;70.07;27.95;;;25.40;88.70;;;;;;4970991;28;20039;-57
2023/07/19 04:14:42;;;;;;;55.63;28.65;;;25.40;88.80;;;;;;4986351;28;20039;-56
2023/07/19 04:17:08;;;;;;;70.82;30.38;;;25.40;88.20;;;;;;4986298;28;20065;-56
2023/07/19 04:19:34;;;;;;;64.95;28.13;;;25.40;88.20;;;;;;4986535;28;20054;-57
2023/07/19 04:21:59;;;;;;;72.72;30.08;;;25.40;88.70;;;;;;4987492;28;20526;-56
2023/07/19 04:24:25;;;;;;;61.38;28.90;;;25.40;89.20;;;;;;4987630;28;20505;-56
2023/07/19 04:26:50;;;;;;;55.78;27.45;;;25.40;89.20;;;;;;4986494;28;20486;-56
2023/07/19 04:29:16;;;;;;;57.30;26.80;;;25.30;89.30;;;;;;4986158;28;20026;-56
2023/07/19 04:31:42;;;;;;;64.40;27.33;;;25.40;89.50;;;;;;4986155;28;20038;-56
2023/07/19 04:34:09;;;;;;;59.97;27.13;;;25.30;89.50;;;;;;4970136;28;20500;-56
2023/07/19 04:36:35;;;;;;;54.78;26.52;;;25.30;89.50;;;;;;4986208;28;20380;-56
2023/07/19 04:39:00;;;;;;;53.17;25.63;;;25.30;89.60;;;;;;4987355;28;20034;-56
2023/07/19 04:41:26;;;;;;;56.88;28.10;;;25.30;89.70;;;;;;4985955;28;20038;-56
2023/07/19 04:43:51;;;;;;;68.63;31.55;;;25.30;89.50;;;;;;4987476;28;20060;-56
2023/07/19 04:46:21;;;;;;;60.90;28.83;;;25.30;89.30;;;;;;4986034;28;20030;-56
2023/07/19 04:48:47;;;;;;;58.85;27.77;;;25.30;89.10;;;;;;4987542;28;20086;-56
2023/07/19 04:51:12;;;;;;;47.05;25.90;;;25.30;89.20;;;;;;4987299;28;20034;-56
2023/07/19 04:53:38;;;;;;;52.10;25.98;;;25.30;88.80;;;;;;4969973;28;20031;-56
2023/07/19 04:56:03;;;;;;;48.88;25.02;;;25.30;89.10;;;;;;4985691;28;20023;-56
2023/07/19 04:58:29;;;;;;;51.13;23.80;;;25.30;89.10;;;;;;4967487;28;20027;-56
2023/07/19 05:00:55;;;;;;;45.72;22.08;;;25.30;89.60;;;;;;4985909;28;20098;-56
2023/07/19 05:03:22;;;;;;;50.10;23.35;;;25.30;89.90;;;;;;4987104;28;20237;-56
2023/07/19 05:05:47;;;;;;;46.97;22.05;;;25.30;90.00;;;;;;4970009;28;20031;-56
2023/07/19 05:08:13;;;;;;;53.17;22.88;;;25.30;90.00;;;;;;4987354;28;20046;-56
2023/07/19 05:10:39;;;;;;;43.30;21.08;;;25.30;90.10;;;;;;4985816;28;20034;-57
2023/07/19 05:13:04;;;;;;;47.35;21.35;;;25.30;90.10;;;;;;4986146;28;20095;-56
2023/07/19 05:15:31;;;;;;;40.42;21.05;;;25.30;89.70;;;;;;4985690;28;20026;-56
2023/07/19 05:17:57;;;;;;;41.50;19.60;;;25.30;89.50;;;;;;4986613;28;20022;-56
2023/07/19 05:20:23;;;;;;;34.17;19.27;;;25.30;89.50;;;;;;4985836;28;20027;-56
2023/07/19 05:22:49;;;;;;;38.55;19.80;;;25.30;90.00;;;;;;4986834;28;20108;-57
2023/07/19 05:25:14;;;;;;;37.40;18.70;;;25.30;90.10;;;;;;4986148;28;20023;-56
2023/07/19 05:27:40;;;;;;;42.53;18.70;;;25.30;90.10;;;;;;4986277;28;20561;-56
2023/07/19 05:30:07;;;;;;;37.50;17.27;;;25.30;90.10;;;;;;4983531;28;20027;-56
2023/07/19 05:32:32;;;;;;;35.85;17.27;;;25.30;90.10;;;;;;4984320;28;20054;-57
2023/07/19 05:34:58;;;;;;;41.65;17.40;;;25.30;90.10;;;;;;4984996;28;20050;-56
2023/07/19 05:37:24;;;;;;;40.00;16.83;;;25.30;90.10;;;;;;4984947;28;20031;-56
2023/07/19 05:39:50;;;;;;;29.98;16.35;;;25.30;90.40;;;;;;4982071;28;20110;-56
2023/07/19 05:42:15;;;;;;;31.75;16.10;;;25.30;90.10;;;;;;4985346;28;20029;-56
2023/07/19 05:44:41;;;;;;;35.40;15.98;;;25.30;90.10;;;;;;4972272;28;20035;-56
2023/07/19 05:47:07;;;;;;;32.85;17.20;;;25.30;89.70;;;;;;4985871;28;20027;-56
2023/07/19 05:49:33;;;;;;;32.00;14.43;;;25.30;89.30;;;;;;4980446;28;20043;-56
2023/07/19 05:51:58;;;;;;;38.90;16.50;;;25.30;89.40;;;;;;4972772;28;20093;-56
2023/07/19 05:54:24;;;;;;;30.45;14.75;;;25.30;89.40;;;;;;4985399;28;20042;-56
2023/07/19 05:56:49;;;;;;;22.95;12.90;;;25.30;90.00;;;;;;4969268;28;20033;-56
2023/07/19 05:59:15;;;;;;;22.92;11.70;;;25.30;89.40;;;;;;4985054;28;20015;-57
2023/07/19 06:01:41;;;;;;;21.33;11.10;;;25.30;89.50;;;;;;4985157;28;20027;-56
2023/07/19 06:04:06;;;;;;;17.33;10.93;;;25.30;89.60;;;;;;4985320;28;20035;-56
2023/07/19 06:06:33;;;;;;;21.25;10.73;;;25.30;89.60;;;;;;4985135;28;20042;-56
2023/07/19 06:09:01;;;;;;;17.33;10.35;;;25.30;89.80;;;;;;4986671;28;20033;-57
2023/07/19 06:11:27;;;;;;;14.60;8.90;;;25.30;89.60;;;;;;4986545;28;20114;-56
2023/07/19 06:13:53;;;;;;;13.82;8.45;;;25.30;89.80;;;;;;4985096;28;20050;-56
2023/07/19 06:16:18;;;;;;;15.45;8.70;;;25.30;90.10;;;;;;4969075;28;20038;-56
2023/07/19 06:18:44;;;;;;;13.98;7.80;;;25.30;90.20;;;;;;4985384;28;20026;-56
2023/07/19 06:21:10;;;;;;;17.77;8.98;;;25.30;90.20;;;;;;4986626;28;20038;-56
2023/07/19 06:23:35;;;;;;;12.55;7.65;;;25.30;90.10;;;;;;4986178;28;20027;-56
2023/07/19 06:26:01;;;;;;;14.23;7.80;;;25.30;90.10;;;;;;4986910;28;20023;-56
2023/07/19 06:28:28;;;;;;;10.88;7.38;;;25.30;90.30;;;;;;4987081;28;20035;-56
2023/07/19 06:30:53;;;;;;;13.85;6.85;;;25.30;90.30;;;;;;4988899;28;20027;-55
2023/07/19 06:33:19;;;;;;;15.48;7.13;;;25.30;90.20;;;;;;4983843;28;20394;-56
2023/07/19 06:35:44;;;;;;;10.00;6.50;;;25.30;90.10;;;;;;4988960;28;20027;-56
2023/07/19 06:38:10;;;;;;;9.70;6.38;;;25.30;90.10;;;;;;4988766;28;20113;-56
2023/07/19 06:40:35;;;;;;;12.63;6.53;;;25.30;90.20;;;;;;4987706;28;20031;-56
2023/07/19 06:43:01;;;;;;;10.10;6.38;;;25.40;90.10;;;;;;4987460;28;20049;-57
2023/07/19 06:45:27;;;;;;;13.18;6.25;;;25.40;89.80;;;;;;4990121;28;20083;-57
2023/07/19 06:47:53;;;;;;;14.43;6.10;;;25.40;89.50;;;;;;4988998;28;20034;-56
2023/07/19 06:50:19;;;;;;;15.25;6.50;;;25.40;89.40;;;;;;4983854;28;20097;-56
2023/07/19 06:52:44;;;;;;;7.90;4.90;;;25.40;89.40;;;;;;4988567;28;20087;-56
2023/07/19 06:55:10;;;;;;;9.13;5.75;;;25.40;89.20;;;;;;4988185;28;20495;-56
2023/07/19 06:57:35;;;;;;;14.30;5.38;;;25.40;88.90;;;;;;4988347;28;20027;-56
2023/07/19 07:00:03;;;;;;;12.35;5.55;;;25.40;88.70;;;;;;4983432;28;20050;-56
2023/07/19 07:02:28;;;;;;;12.43;5.25;;;25.40;88.40;;;;;;5003169;28;20052;-56
2023/07/19 07:04:54;;;;;;;8.23;5.35;;;25.40;89.00;;;;;;5005711;28;20066;-56
2023/07/19 07:07:20;;;;;;;9.98;4.90;;;25.50;88.30;;;;;;5008651;28;20037;-56
2023/07/19 07:09:46;;;;;;;11.40;5.00;;;25.40;88.00;;;;;;4995010;28;20031;-56
2023/07/19 07:12:11;;;;;;;10.02;5.25;;;25.50;87.90;;;;;;4971382;28;20035;-56
2023/07/19 07:14:37;;;;;;;6.22;4.88;;;25.50;87.70;;;;;;4988646;28;20042;-56
2023/07/19 07:17:05;;;;;;;8.35;5.40;;;25.50;87.30;;;;;;4988354;28;20046;-55
2023/07/19 07:19:30;;;;;;;13.50;8.48;;;25.50;87.20;;;;;;4987266;28;20041;-56
2023/07/19 07:21:56;;;;;;;9.95;7.35;;;25.50;87.10;;;;;;4967755;28;20026;-56
2023/07/19 07:24:21;;;;;;;11.95;6.82;;;25.60;87.00;;;;;;4988866;28;20035;-56
2023/07/19 07:26:47;;;;;;;12.60;6.35;;;25.60;86.80;;;;;;4988071;28;20023;-56
2023/07/19 07:29:13;;;;;;;10.32;6.22;;;25.60;86.70;;;;;;4983890;28;20030;-56
2023/07/19 07:31:39;;;;;;;9.73;5.78;;;25.60;86.50;;;;;;4986760;28;20110;-56
2023/07/19 07:34:04;;;;;;;7.53;5.70;;;25.60;86.30;;;;;;4984811;28;20077;-56
2023/07/19 07:36:30;;;;;;;12.75;6.03;;;25.60;86.20;;;;;;4988718;28;20019;-56
2023/07/19 07:38:55;;;;;;;17.15;10.82;;;25.70;86.10;;;;;;4980188;28;20026;-56
2023/07/19 07:41:21;;;;;;;21.85;13.13;;;25.70;86.00;;;;;;4984870;28;20069;-56
2023/07/19 07:43:46;;;;;;;11.38;7.05;;;25.70;85.80;;;;;;4983348;28;20027;-56
2023/07/19 07:46:12;;;;;;;20.08;10.75;;;25.70;85.60;;;;;;4984188;28;20427;-56
2023/07/19 07:48:38;;;;;;;22.17;8.20;;;25.70;85.50;;;;;;4983193;28;20115;-56
2023/07/19 07:51:03;;;;;;;23.52;9.77;;;25.80;85.40;;;;;;4984812;28;20031;-56
2023/07/19 07:53:29;;;;;;;11.48;6.88;;;25.80;85.30;;;;;;4987377;28;20022;-56
2023/07/19 07:55:54;;;;;;;10.85;6.53;;;25.80;85.10;;;;;;4966602;28;20036;-56
2023/07/19 07:58:20;;;;;;;15.57;6.03;;;25.80;84.80;;;;;;4992615;28;20053;-56
2023/07/19 08:00:45;;;;;;;41.85;9.73;;;25.90;84.90;;;;;;4988779;28;20043;-56
2023/07/19 08:03:11;;;;;;;22.90;7.88;;;25.80;84.70;;;;;;4982793;28;20145;-56
2023/07/19 08:05:40;;;;;;;21.75;7.88;;;25.80;84.50;;;;;;4982161;28;20133;-56
2023/07/19 08:08:06;;;;;;;23.92;7.35;;;25.90;84.40;;;;;;4986471;28;20034;-56
2023/07/19 08:10:39;;;;;;;22.42;6.60;;;25.90;84.20;;;;;;4985282;28;20081;-56
2023/07/19 08:13:05;;;;;;;14.55;6.50;;;25.90;84.10;;;;;;4987498;28;20462;-56
2023/07/19 08:15:30;;;;;;;29.08;7.03;;;25.90;83.90;;;;;;4981603;28;20118;-56
2023/07/19 08:17:56;;;;;;;19.63;7.22;;;25.90;83.70;;;;;;4987663;28;20038;-56
2023/07/19 08:20:21;;;;;;;24.98;6.88;;;25.90;83.60;;;;;;4991269;28;20041;-56
2023/07/19 08:22:47;;;;;;;36.80;8.57;;;25.90;83.60;;;;;;4982755;28;20110;-56
2023/07/19 08:25:16;;;;;;;26.63;6.95;;;25.90;83.50;;;;;;4984249;28;20031;-56
2023/07/19 08:27:43;;;;;;;24.40;6.78;;;26.00;83.40;;;;;;4980549;28;20061;-54
2023/07/19 08:30:15;;;;;;;31.25;6.63;;;26.00;83.00;;;;;;4985454;28;20074;-56
2023/07/19 08:32:43;;;;;;;30.40;7.28;;;26.00;83.00;;;;;;4982595;28;20038;-56
2023/07/19 08:35:09;;;;;;;27.17;6.85;;;26.00;82.80;;;;;;4986110;28;20181;-55
2023/07/19 08:37:35;;;;;;;27.95;7.57;;;26.00;82.80;;;;;;4985104;28;20054;-56
2023/07/19 08:40:00;;;;;;;26.67;7.93;;;26.00;82.70;;;;;;4999064;28;20062;-56
2023/07/19 08:42:26;;;;;;;36.20;7.95;;;26.10;82.60;;;;;;4985455;28;20117;-56
2023/07/19 08:44:51;;;;;;;36.63;7.88;;;26.10;82.10;;;;;;4951562;28;20046;-56
2023/07/19 08:47:17;;;;;;;33.53;7.47;;;26.10;81.80;;;;;;4986293;28;20050;-56
2023/07/19 08:49:43;;;;;;;40.72;7.68;;;26.20;81.50;;;;;;4990521;28;20399;-57
2023/07/19 08:52:08;;;;;;;34.78;7.60;;;26.20;81.60;;;;;;4985605;28;20034;-56
2023/07/19 08:54:34;;;;;;;41.90;8.05;;;26.20;81.40;;;;;;4984682;28;20077;-56
2023/07/19 08:56:59;;;;;;;34.55;7.53;;;26.20;80.80;;;;;;4980700;28;20043;-56
2023/07/19 08:59:25;;;;;;;37.00;8.15;;;26.20;80.40;;;;;;4985391;28;20027;-57
2023/07/19 09:01:51;;;;;;;44.58;8.43;;;26.30;80.60;;;;;;4983734;28;20026;-57
2023/07/19 09:04:17;;;;;;;47.08;8.82;;;26.30;80.70;;;;;;4979932;28;20034;-58
2023/07/19 09:06:42;;;;;;;41.67;8.63;;;26.30;80.40;;;;;;4983813;28;20027;-57
2023/07/19 09:09:13;;;;;;;45.42;9.25;;;26.40;80.40;;;;;;4964883;28;20356;-58
2023/07/19 09:11:42;;;;;;;61.13;10.43;;;26.40;80.50;;;;;;4983134;28;20038;-57
2023/07/19 09:14:08;;;;;;;56.95;9.45;;;26.40;80.30;;;;;;4984712;28;20027;-57
2023/07/19 09:16:35;;;;;;;70.53;11.18;;;26.50;80.10;;;;;;4997110;28;20073;-55
2023/07/19 09:19:00;;;;;;;52.05;11.68;;;26.50;80.10;;;;;;4990565;28;20034;-57
2023/07/19 09:21:52;;;;;;;46.83;9.90;;;26.50;80.10;;;;;;4985140;28;20497;-58
2023/07/19 09:24:18;;;;;;;54.13;9.93;;;26.50;80.00;;;;;;4982673;28;20117;-57
2023/07/19 09:26:57;;;;;;;46.40;8.48;;;26.50;80.20;;;;;;4983574;28;20027;-57
2023/07/19 09:29:22;;;;;;;50.75;8.70;;;26.50;80.10;;;;;;4982550;28;20070;-58
2023/07/19 09:32:01;;;;;;;58.22;10.02;;;26.60;79.80;;;;;;4984141;28;20031;-57
2023/07/19 09:34:36;;;;;;;48.63;9.70;;;26.60;79.80;;;;;;4977756;28;20035;-54
2023/07/19 09:37:02;;;;;;;45.15;9.57;;;26.60;79.70;;;;;;4989507;28;20046;-57
2023/07/19 09:39:29;;;;;;;45.17;8.70;;;26.60;79.70;;;;;;4984254;28;20034;-57
2023/07/19 09:41:54;;;;;;;65.50;10.18;;;26.60;79.50;;;;;;4963920;28;20035;-57
2023/07/19 09:44:20;;;;;;;56.95;9.75;;;26.60;79.50;;;;;;4966864;28;20026;-57
2023/07/19 09:46:46;;;;;;;57.35;10.95;;;26.70;79.50;;;;;;4968683;28;21215;-57
2023/07/19 09:49:12;;;;;;;49.42;11.15;;;26.70;79.50;;;;;;4982159;28;20037;-57
2023/07/19 09:51:41;;;;;;;75.03;11.38;;;26.70;79.40;;;;;;4979358;28;20114;-57
2023/07/19 09:54:16;;;;;;;44.60;9.98;;;26.70;79.30;;;;;;4979918;28;20038;-55
2023/07/19 09:56:42;;;;;;;42.17;10.33;;;26.80;79.20;;;;;;4982386;28;20491;-55
2023/07/19 09:59:14;;;;;;;60.33;10.77;;;26.80;79.30;;;;;;4981849;28;20313;-55
2023/07/19 10:01:40;;;;;;;44.08;10.02;;;26.80;79.20;;;;;;4982225;28;20086;-56
2023/07/19 10:04:25;;;;;;;54.55;10.85;;;26.80;79.10;;;;;;4970754;28;20030;-55
2023/07/19 10:07:04;;;;;;;44.72;9.88;;;26.90;78.60;;;;;;4985518;28;20065;-55
2023/07/19 10:09:30;;;;;;;53.15;10.07;;;26.90;78.70;;;;;;4985790;28;20031;-55
2023/07/19 10:12:00;;;;;;;47.60;9.48;;;26.90;78.40;;;;;;4980746;28;20030;-55
2023/07/19 10:14:27;;;;;;;52.40;10.23;;;26.90;78.50;;;;;;4985360;28;20094;-56
2023/07/19 10:16:59;;;;;;;51.25;9.80;;;26.90;78.30;;;;;;4986598;28;20026;-55
2023/07/19 10:19:25;;;;;;;26.73;8.18;;;26.90;78.20;;;;;;4980636;28;20206;-56
2023/07/19 10:22:07;;;;;;;58.15;8.95;;;27.00;78.00;;;;;;4976570;28;20483;-56
2023/07/19 10:24:36;;;;;;;34.10;7.68;;;26.90;78.00;;;;;;4984781;28;20041;-55
2023/07/19 10:27:06;;;;;;;49.65;10.00;;;27.00;78.00;;;;;;4986381;28;20042;-55
2023/07/19 10:29:39;;;;;;;46.63;9.20;;;27.00;77.90;;;;;;4985264;28;20505;-56
2023/07/19 10:32:06;;;;;;;39.67;9.00;;;27.00;77.70;;;;;;4966675;28;20058;-56
2023/07/19 10:34:32;;;;;;;70.32;10.70;;;27.00;77.60;;;;;;4984236;28;20058;-56
2023/07/19 10:37:02;;;;;;;58.58;9.25;;;27.00;77.50;;;;;;4974313;28;20360;-55
2023/07/19 10:39:28;;;;;;;35.38;8.90;;;27.00;77.40;;;;;;4988054;28;20038;-55
2023/07/19 10:41:53;;;;;;;46.20;8.95;;;27.00;77.30;;;;;;4983748;28;20432;-55
2023/07/19 10:44:20;;;;;;;49.03;10.02;;;27.10;77.10;;;;;;4987083;28;20035;-55
2023/07/19 10:46:46;;;;;;;46.45;9.27;;;27.10;77.00;;;;;;4985932;28;20031;-55
2023/07/19 10:49:12;;;;;;;168.90;23.23;;;27.20;77.00;;;;;;4983146;28;20388;-55
2023/07/19 10:51:38;;;;;;;139.98;18.40;;;27.20;77.00;;;;;;4964617;28;20043;-55
2023/07/19 10:54:03;;;;;;;58.92;12.18;;;27.10;76.80;;;;;;4982069;28;20123;-55
2023/07/19 10:56:29;;;;;;;60.97;10.15;;;27.20;76.30;;;;;;4983570;28;20041;-55
2023/07/19 10:58:58;;;;;;;56.65;9.57;;;27.20;75.70;;;;;;4966536;28;20019;-56
2023/07/19 11:01:25;;;;;;;142.10;18.40;;;27.20;75.30;;;;;;4966901;28;20029;-56
2023/07/19 11:03:51;;;;;;;103.80;12.98;;;27.20;74.50;;;;;;4986475;28;20027;-56
2023/07/19 11:06:17;;;;;;;57.70;10.52;;;27.30;74.30;;;;;;4985301;28;20042;-56
2023/07/19 11:08:44;;;;;;;56.75;9.27;;;27.30;74.00;;;;;;4987096;28;20058;-56
2023/07/19 11:11:11;;;;;;;41.78;9.20;;;27.30;73.50;;;;;;4964567;28;20032;-56
2023/07/19 11:13:37;;;;;;;48.72;8.68;;;27.40;72.90;;;;;;4976225;28;20418;-56
2023/07/19 11:16:03;;;;;;;74.72;10.63;;;27.40;72.90;;;;;;4980600;28;20034;-56
2023/07/19 11:18:29;;;;;;;89.38;12.73;;;27.40;72.70;;;;;;4975156;28;21412;-56
2023/07/19 11:20:58;;;;;;;75.60;10.15;;;27.50;72.90;;;;;;4980321;28;20030;-55
2023/07/19 11:23:26;;;;;;;41.53;7.78;;;27.50;72.70;;;;;;4980415;28;20472;-56
2023/07/19 11:26:05;;;;;;;33.80;7.50;;;27.50;71.40;;;;;;4985237;28;20054;-55
2023/07/19 11:28:47;;;;;;;34.58;7.38;;;27.50;71.30;;;;;;4985279;28;20045;-56
2023/07/19 11:31:35;;;;;;;31.38;6.75;;;27.60;71.10;;;;;;4988164;28;20046;-56
2023/07/19 11:34:07;;;;;;;30.60;6.95;;;27.70;70.40;;;;;;4986962;28;20035;-56
2023/07/19 11:36:34;;;;;;;26.02;6.35;;;27.70;69.70;;;;;;4987836;28;20037;-56
2023/07/19 11:38:59;;;;;;;29.10;5.72;;;27.80;69.10;;;;;;4985844;28;20054;-55
2023/07/19 11:41:25;;;;;;;25.55;6.28;;;27.90;69.00;;;;;;4985710;28;20027;-56
2023/07/19 11:43:51;;;;;;;35.95;6.43;;;28.00;68.60;;;;;;4970341;28;20042;-55
2023/07/19 11:46:16;;;;;;;37.40;6.65;;;28.00;68.30;;;;;;4987010;28;20043;-56
2023/07/19 11:48:42;;;;;;;47.72;8.02;;;28.00;68.10;;;;;;4984022;28;20062;-56
2023/07/19 11:51:07;;;;;;;30.35;6.18;;;28.00;68.30;;;;;;4969498;28;20104;-56
2023/07/19 11:53:33;;;;;;;34.08;6.05;;;28.10;67.40;;;;;;4988143;28;20039;-55
2023/07/19 11:55:58;;;;;;;41.90;6.30;;;28.20;66.60;;;;;;4986765;28;20874;-52
2023/07/19 11:58:24;;;;;;;31.75;5.70;;;28.30;66.30;;;;;;4986825;28;20027;-52
2023/07/19 12:00:50;;;;;;;23.45;5.63;;;28.30;66.60;;;;;;4987223;28;20050;-51
2023/07/19 12:03:17;;;;;;;25.58;5.18;;;28.30;66.10;;;;;;4985644;28;20081;-52
2023/07/19 12:05:43;;;;;;;16.17;5.00;;;28.40;65.40;;;;;;4982380;28;20031;-52
2023/07/19 12:08:09;;;;;;;16.20;4.88;;;28.50;65.70;;;;;;4986857;28;20019;-52
2023/07/19 12:10:34;;;;;;;18.80;4.78;;;28.60;64.90;;;;;;4985826;28;20129;-52
2023/07/19 12:13:00;;;;;;;28.70;5.20;;;28.60;64.90;;;;;;4982961;28;20030;-52
2023/07/19 12:15:26;;;;;;;16.75;5.10;;;28.70;64.50;;;;;;4982514;28;20041;-52
2023/07/19 12:17:51;;;;;;;16.50;4.95;;;28.80;64.40;;;;;;4979706;28;20034;-52
2023/07/19 12:20:17;;;;;;;16.33;4.55;;;28.80;63.60;;;;;;4964266;28;20041;-52
2023/07/19 12:22:43;;;;;;;23.35;5.10;;;28.90;63.90;;;;;;4978649;28;20404;-51
2023/07/19 12:25:09;;;;;;;20.70;4.78;;;29.00;63.60;;;;;;4980496;28;20038;-52
2023/07/19 12:27:35;;;;;;;23.95;4.32;;;29.10;63.30;;;;;;4981018;28;20121;-52
2023/07/19 12:30:01;;;;;;;22.27;4.65;;;29.10;63.20;;;;;;4979259;28;20204;-52
2023/07/19 12:32:26;;;;;;;23.80;4.55;;;29.20;63.00;;;;;;4974404;28;20027;-51